Time;durP1;ratioP1;P1;durP2;ratioP2;P2;SDS_P1;SDS_P2;PMS_P1;PMS_P2;Temp;Humidity;BMP_temperature;BMP_pressure;BME280_temperature;BME280_humidity;BME280_pressure;Samples;Min_cycle;Max_cycle;Signal;HPM_P1;HPM_P2
2023/04/14 00:01:53;;;;;;;5.83;2.93;;;;;;;2.86;100.00;99785.56;5007599;28;20201;-73
2023/04/14 00:04:19;;;;;;;6.73;2.97;;;;;;;2.68;100.00;99780.56;5022597;28;20256;-73
2023/04/14 00:06:46;;;;;;;8.63;2.70;;;;;;;2.65;100.00;99783.94;5020625;28;20219;-74
2023/04/14 00:09:12;;;;;;;4.03;2.67;;;;;;;2.59;100.00;99793.31;5027543;28;20686;-75
2023/04/14 00:11:38;;;;;;;4.13;2.43;;;;;;;2.40;100.00;99792.66;5032897;28;20230;-73
2023/04/14 00:14:05;;;;;;;6.23;3.00;;;;;;;2.35;100.00;99793.31;5026903;28;20665;-73
2023/04/14 00:16:32;;;;;;;7.70;2.97;;;;;;;2.63;100.00;99795.19;5007902;28;20610;-72
2023/04/14 00:18:58;;;;;;;4.13;2.70;;;;;;;2.63;100.00;99811.75;5023194;28;20211;-74
2023/04/14 00:21:25;;;;;;;5.23;2.70;;;;;;;2.50;100.00;99813.06;5022926;28;20257;-73
2023/04/14 00:23:52;;;;;;;5.87;2.57;;;;;;;2.47;100.00;99804.22;5020750;28;20712;-73
2023/04/14 00:26:18;;;;;;;6.17;2.73;;;;;;;2.47;100.00;99812.97;5020425;28;20703;-73
2023/04/14 00:28:44;;;;;;;4.90;2.80;;;;;;;2.38;100.00;99807.38;5029318;28;20215;-73
2023/04/14 00:31:11;;;;;;;6.90;2.83;;;;;;;2.27;100.00;99803.47;5029944;28;20204;-73
2023/04/14 00:33:38;;;;;;;5.80;2.67;;;;;;;2.30;100.00;99798.38;5025455;28;20191;-74
2023/04/14 00:36:04;;;;;;;3.07;2.13;;;;;;;2.32;100.00;99798.41;5024555;28;20222;-73
2023/04/14 00:38:30;;;;;;;4.70;3.10;;;;;;;2.29;100.00;99809.66;5024867;28;20209;-73
2023/04/14 00:40:57;;;;;;;4.87;2.53;;;;;;;2.19;100.00;99802.31;5027327;28;20235;-74
2023/04/14 00:43:23;;;;;;;5.47;2.83;;;;;;;2.18;100.00;99819.72;5014161;28;20211;-73
2023/04/14 00:45:50;;;;;;;5.20;2.53;;;;;;;2.15;100.00;99818.72;5025886;28;20251;-73
2023/04/14 00:48:17;;;;;;;5.77;2.97;;;;;;;2.22;100.00;99806.75;5031017;28;20238;-72
2023/04/14 00:50:45;;;;;;;8.70;2.40;;;;;;;2.20;100.00;99804.97;5022399;28;20615;-73
2023/04/14 00:53:12;;;;;;;4.03;2.70;;;;;;;2.17;100.00;99820.53;5026023;28;20589;-72
2023/04/14 00:55:40;;;;;;;4.83;2.80;;;;;;;2.16;100.00;99797.88;5027026;28;20213;-73
2023/04/14 00:58:06;;;;;;;5.03;2.40;;;;;;;2.12;100.00;99805.53;5029863;28;20189;-75
2023/04/14 01:00:34;;;;;;;6.20;2.90;;;;;;;2.11;100.00;99812.50;5018248;28;20250;-74
2023/04/14 01:03:00;;;;;;;3.73;2.50;;;;;;;2.03;100.00;99810.44;5009605;28;20197;-74
2023/04/14 01:05:27;;;;;;;4.47;3.00;;;;;;;2.03;100.00;99807.81;5028305;28;20314;-73
2023/04/14 01:07:54;;;;;;;5.97;3.03;;;;;;;1.99;100.00;99811.13;5029288;28;20213;-73
2023/04/14 01:10:20;;;;;;;5.07;3.00;;;;;;;1.90;100.00;99790.78;5023160;28;20250;-76
2023/04/14 01:13:10;;;;;;;8.40;3.10;;;;;;;1.98;100.00;99807.59;5018035;28;20731;-73
2023/04/14 01:15:59;;;;;;;5.73;2.90;;;;;;;2.18;100.00;99798.81;5028901;28;20217;-73
2023/04/14 01:18:46;;;;;;;4.53;2.43;;;;;;;2.15;100.00;99796.09;5025302;28;20210;-73
2023/04/14 01:21:19;;;;;;;5.60;2.80;;;;;;;2.05;100.00;99788.75;5022909;28;20262;-74
2023/04/14 01:24:23;;;;;;;4.33;2.37;;;;;;;2.02;100.00;99790.38;5023033;28;20210;-74
2023/04/14 01:27:06;;;;;;;7.73;3.60;;;;;;;2.25;100.00;99792.09;4999347;28;20313;-73
2023/04/14 01:29:45;;;;;;;9.70;3.23;;;;;;;2.23;100.00;99791.16;5018921;28;20645;-73
2023/04/14 01:32:20;;;;;;;5.17;2.80;;;;;;;2.16;100.00;99787.41;5024969;28;20621;-74
2023/04/14 01:34:56;;;;;;;10.93;3.83;;;;;;;2.24;100.00;99789.41;5020435;28;20218;-73
2023/04/14 01:37:35;;;;;;;6.97;3.40;;;;;;;2.19;100.00;99791.88;5020739;28;20197;-74
2023/04/14 01:40:11;;;;;;;5.70;3.30;;;;;;;2.08;100.00;99786.25;5025998;28;20562;-74
2023/04/14 01:42:41;;;;;;;7.93;3.57;;;;;;;2.05;100.00;99793.97;5026307;28;20220;-73
2023/04/14 01:45:16;;;;;;;8.03;3.17;;;;;;;2.00;100.00;99802.44;5025922;28;20268;-73
2023/04/14 01:47:44;;;;;;;7.30;3.10;;;;;;;1.81;100.00;99793.94;5024131;28;20603;-73
2023/04/14 01:50:11;;;;;;;5.20;2.90;;;;;;;1.72;100.00;99783.13;5026113;28;20236;-73
2023/04/14 01:52:38;;;;;;;3.57;2.23;;;;;;;1.70;100.00;99791.75;5015045;28;20267;-75
2023/04/14 01:55:06;;;;;;;8.07;3.17;;;;;;;1.67;100.00;99796.84;5024434;28;20223;-73
2023/04/14 01:57:35;;;;;;;6.77;3.20;;;;;;;1.65;100.00;99814.16;5023038;28;20187;-73
2023/04/14 02:00:04;;;;;;;7.87;3.13;;;;;;;1.53;100.00;99801.50;5023300;28;20206;-73
2023/04/14 02:02:32;;;;;;;7.97;3.70;;;;;;;1.69;100.00;99808.22;5024587;28;20200;-73
2023/04/14 02:05:00;;;;;;;8.40;3.40;;;;;;;1.74;100.00;99814.53;5027009;28;20631;-73
2023/04/14 02:07:29;;;;;;;8.97;3.20;;;;;;;1.59;100.00;99822.63;5032102;28;20227;-73
2023/04/14 02:09:59;;;;;;;6.87;3.43;;;;;;;1.40;100.00;99820.13;5034075;28;20322;-73
2023/04/14 02:12:28;;;;;;;5.17;2.60;;;;;;;1.31;100.00;99827.56;5033202;28;20600;-73
2023/04/14 02:14:54;;;;;;;5.50;3.03;;;;;;;1.19;100.00;99822.72;5027343;28;20246;-73
2023/04/14 02:17:21;;;;;;;6.30;3.17;;;;;;;1.13;100.00;99819.88;5032458;28;20632;-73
2023/04/14 02:19:48;;;;;;;7.97;2.87;;;;;;;1.17;100.00;99821.78;5032118;28;20241;-73
2023/04/14 02:22:15;;;;;;;7.03;3.40;;;;;;;1.24;100.00;99810.78;5016057;28;20203;-74
2023/04/14 02:24:41;;;;;;;8.57;2.83;;;;;;;1.56;100.00;99827.72;5030665;28;20750;-74
2023/04/14 02:27:10;;;;;;;4.77;2.80;;;;;;;1.54;100.00;99825.03;5030469;28;20211;-73
2023/04/14 02:29:41;;;;;;;5.40;2.80;;;;;;;1.51;100.00;99830.13;5027501;28;20207;-74
2023/04/14 02:32:13;;;;;;;4.87;3.00;;;;;;;1.39;100.00;99829.66;5033667;28;20195;-75
2023/04/14 02:35:05;;;;;;;6.87;2.77;;;;;;;1.38;100.00;99834.81;5029257;28;20215;-73
2023/04/14 02:37:37;;;;;;;6.03;2.37;;;;;;;1.42;100.00;99844.53;5030732;28;20276;-73
2023/04/14 02:40:11;;;;;;;7.03;2.67;;;;;;;1.33;100.00;99841.56;5029515;28;20227;-73
2023/04/14 02:42:42;;;;;;;5.57;2.77;;;;;;;1.50;100.00;99848.34;5030329;28;20196;-73
2023/04/14 02:45:16;;;;;;;4.83;2.47;;;;;;;1.57;100.00;99848.66;5026528;28;20703;-73
2023/04/14 02:47:46;;;;;;;3.33;2.17;;;;;;;1.56;100.00;99853.81;5025427;28;21292;-75
2023/04/14 02:50:15;;;;;;;5.97;2.43;;;;;;;1.57;100.00;99855.59;5033399;28;20663;-73
2023/04/14 02:52:43;;;;;;;7.10;2.53;;;;;;;1.50;100.00;99862.28;5032043;28;20403;-73
2023/04/14 02:55:12;;;;;;;5.10;2.50;;;;;;;1.61;100.00;99869.69;5028742;28;20393;-73
2023/04/14 02:57:40;;;;;;;5.30;2.33;;;;;;;1.62;100.00;99863.63;5022929;28;20618;-73
2023/04/14 03:00:07;;;;;;;5.67;2.33;;;;;;;1.56;100.00;99865.13;5034495;28;20207;-73
2023/04/14 03:02:35;;;;;;;5.07;2.27;;;;;;;1.59;100.00;99864.38;5014902;28;20199;-73
2023/04/14 03:05:03;;;;;;;7.00;2.60;;;;;;;1.56;100.00;99872.06;5049803;23;20670;-72
2023/04/14 03:07:30;;;;;;;6.60;2.33;;;;;;;1.59;100.00;99861.75;5014421;28;20251;-71
2023/04/14 03:09:57;;;;;;;5.23;2.10;;;;;;;1.64;100.00;99864.59;5014353;28;20203;-71
2023/04/14 03:12:24;;;;;;;6.20;2.33;;;;;;;1.62;100.00;99858.41;5012495;28;20196;-71
2023/04/14 03:14:52;;;;;;;4.00;2.50;;;;;;;1.58;100.00;99862.59;5010861;28;20239;-70
2023/04/14 03:17:20;;;;;;;5.07;2.23;;;;;;;1.36;100.00;99859.94;5008713;28;20714;-71
2023/04/14 03:19:48;;;;;;;6.17;2.10;;;;;;;1.28;100.00;99861.34;5006777;28;20267;-71
2023/04/14 03:22:18;;;;;;;9.23;2.17;;;;;;;1.46;100.00;99856.88;5011496;28;20260;-72
2023/04/14 03:24:45;;;;;;;4.00;2.07;;;;;;;1.35;100.00;99856.44;5009126;28;20218;-71
2023/04/14 03:27:21;;;;;;;6.37;2.80;;;;;;;1.21;100.00;99862.81;5007672;28;20704;-71
2023/04/14 03:29:51;;;;;;;4.57;2.40;;;;;;;1.25;100.00;99856.91;5007873;28;20322;-72
2023/04/14 03:32:21;;;;;;;3.00;2.03;;;;;;;1.24;100.00;99853.41;5011794;28;20199;-72
2023/04/14 03:34:52;;;;;;;4.07;2.17;;;;;;;1.27;100.00;99850.03;5010423;28;20599;-72
2023/04/14 03:37:25;;;;;;;3.40;2.10;;;;;;;1.33;100.00;99855.50;5007051;28;20254;-71
2023/04/14 03:39:52;;;;;;;6.73;2.20;;;;;;;1.36;100.00;99853.00;5008533;28;20664;-71
2023/04/14 03:42:20;;;;;;;5.07;2.00;;;;;;;1.22;100.00;99854.19;5010804;28;20214;-71
2023/04/14 03:44:52;;;;;;;6.13;2.20;;;;;;;1.12;100.00;99845.03;5010156;28;20277;-72
2023/04/14 03:47:21;;;;;;;5.60;2.03;;;;;;;1.11;100.00;99845.88;5010361;28;20323;-71
2023/04/14 03:49:51;;;;;;;8.00;2.37;;;;;;;1.25;100.00;99851.69;5010384;28;20700;-71
2023/04/14 03:52:20;;;;;;;4.33;2.20;;;;;;;1.36;100.00;99850.41;5009657;28;20204;-71
2023/04/14 03:54:48;;;;;;;8.03;2.40;;;;;;;1.34;100.00;99845.94;5008837;28;20219;-71
2023/04/14 03:57:16;;;;;;;6.37;2.17;;;;;;;1.16;100.00;99853.88;5006832;28;20200;-71
2023/04/14 03:59:43;;;;;;;9.13;2.43;;;;;;;0.97;100.00;99857.44;5007585;28;20746;-71
2023/04/14 04:02:11;;;;;;;6.23;2.03;;;;;;;0.87;100.00;99860.50;5004162;28;20208;-71
2023/04/14 04:04:38;;;;;;;5.87;2.40;;;;;;;0.77;100.00;99858.28;5010338;28;20234;-70
2023/04/14 04:07:09;;;;;;;5.00;2.00;;;;;;;0.78;100.00;99863.56;5006988;28;20270;-71
2023/04/14 04:09:37;;;;;;;4.17;1.90;;;;;;;0.76;100.00;99859.13;5009688;28;20200;-71
2023/04/14 04:12:04;;;;;;;6.17;2.20;;;;;;;0.79;100.00;99864.47;5007513;28;20560;-71
2023/04/14 04:14:31;;;;;;;3.93;2.33;;;;;;;0.88;100.00;99865.78;5000525;28;20258;-70
2023/04/14 04:17:02;;;;;;;5.13;2.60;;;;;;;0.80;100.00;99866.25;5006997;28;20250;-71
2023/04/14 04:19:31;;;;;;;5.93;2.40;;;;;;;0.79;100.00;99869.66;5009292;28;20200;-71
2023/04/14 04:21:59;;;;;;;5.93;2.57;;;;;;;0.74;100.00;99869.47;5007846;28;20237;-71
2023/04/14 04:24:29;;;;;;;4.77;2.50;;;;;;;0.65;100.00;99868.19;5010344;28;20204;-71
2023/04/14 04:26:55;;;;;;;4.73;2.53;;;;;;;0.57;100.00;99873.94;5010566;28;20631;-72
2023/04/14 04:29:22;;;;;;;6.17;2.63;;;;;;;0.57;100.00;99873.94;5009334;28;20470;-71
2023/04/14 04:31:49;;;;;;;5.97;2.50;;;;;;;0.63;100.00;99883.75;5002875;28;20234;-71
2023/04/14 04:34:16;;;;;;;5.13;2.60;;;;;;;0.76;100.00;99880.84;5007230;28;20199;-71
2023/04/14 04:36:43;;;;;;;8.07;2.80;;;;;;;0.85;100.00;99878.69;5006664;28;20734;-72
2023/04/14 04:39:10;;;;;;;7.87;2.30;;;;;;;0.84;100.00;99878.59;5008548;28;20206;-71
2023/04/14 04:41:36;;;;;;;5.23;2.50;;;;;;;0.75;100.00;99883.41;4992672;28;20199;-71
2023/04/14 04:44:02;;;;;;;4.57;2.40;;;;;;;0.70;100.00;99882.31;5003298;28;20196;-71
2023/04/14 04:46:43;;;;;;;7.43;3.27;;;;;;;0.78;100.00;99886.13;5006486;28;20223;-71
2023/04/14 04:49:09;;;;;;;3.67;2.37;;;;;;;0.94;100.00;99886.00;5009722;28;20357;-71
2023/04/14 04:51:36;;;;;;;5.10;2.53;;;;;;;1.18;100.00;99887.03;5008717;28;20202;-71
2023/04/14 04:54:02;;;;;;;7.40;2.80;;;;;;;1.10;100.00;99893.63;5006878;28;20249;-71
2023/04/14 04:56:28;;;;;;;6.60;2.30;;;;;;;1.02;100.00;99887.22;5007447;28;20239;-72
2023/04/14 04:58:55;;;;;;;5.77;2.63;;;;;;;1.04;100.00;99890.78;4981696;28;20243;-69
2023/04/14 05:01:21;;;;;;;7.47;3.60;;;;;;;1.01;100.00;99888.03;5007271;28;20295;-69
2023/04/14 05:03:47;;;;;;;7.03;3.10;;;;;;;1.11;100.00;99892.81;5008478;28;20562;-70
2023/04/14 05:06:15;;;;;;;8.83;3.43;;;;;;;1.20;100.00;99890.63;4990617;28;20715;-70
2023/04/14 05:08:41;;;;;;;6.47;3.77;;;;;;;1.27;100.00;99883.03;5010368;28;20229;-70
2023/04/14 05:11:08;;;;;;;7.00;3.20;;;;;;;1.30;100.00;99884.06;5004494;28;20223;-70
2023/04/14 05:13:34;;;;;;;8.07;3.77;;;;;;;1.35;100.00;99892.06;5007782;28;20683;-70
2023/04/14 05:16:14;;;;;;;5.33;3.43;;;;;;;1.39;100.00;99891.38;5005445;28;20228;-70
2023/04/14 05:18:41;;;;;;;6.80;3.03;;;;;;;1.36;100.00;99894.75;5006356;28;20572;-70
2023/04/14 05:21:09;;;;;;;7.57;3.60;;;;;;;1.38;100.00;99902.63;5007450;28;20258;-70
2023/04/14 05:23:37;;;;;;;7.63;3.40;;;;;;;1.56;100.00;99906.88;5008628;28;20266;-71
2023/04/14 05:26:04;;;;;;;7.43;3.27;;;;;;;1.66;100.00;99908.19;5007185;28;20219;-70
2023/04/14 05:28:51;;;;;;;8.57;3.50;;;;;;;1.78;100.00;99905.16;5001407;28;20243;-70
2023/04/14 05:31:17;;;;;;;8.03;3.63;;;;;;;1.81;100.00;99910.50;5006074;28;20226;-70
2023/04/14 05:33:43;;;;;;;7.90;4.10;;;;;;;1.87;100.00;99903.81;5007443;28;20202;-71
2023/04/14 05:36:10;;;;;;;7.43;3.20;;;;;;;1.94;100.00;99910.16;5007533;28;20223;-71
2023/04/14 05:38:40;;;;;;;5.50;3.63;;;;;;;2.03;100.00;99904.44;4989471;28;20728;-70
2023/04/14 05:41:07;;;;;;;11.93;3.97;;;;;;;2.36;100.00;99910.94;5005453;28;20650;-70
2023/04/14 05:43:33;;;;;;;11.43;4.40;;;;;;;2.88;100.00;99907.66;5007590;28;20426;-70
2023/04/14 05:46:00;;;;;;;9.50;5.57;;;;;;;3.52;100.00;99903.75;5007831;28;20724;-70
2023/04/14 05:48:29;;;;;;;13.93;4.93;;;;;;;3.97;100.00;99893.88;5005160;28;20284;-70
2023/04/14 05:50:56;;;;;;;12.83;5.50;;;;;;;4.26;100.00;99900.03;5002667;28;20201;-70
2023/04/14 05:53:22;;;;;;;13.00;6.03;;;;;;;4.12;100.00;99912.72;5004734;28;20244;-70
2023/04/14 05:55:52;;;;;;;10.70;5.27;;;;;;;4.23;100.00;99913.06;5005167;28;20218;-70
2023/04/14 05:58:18;;;;;;;14.27;5.97;;;;;;;4.41;100.00;99911.00;5007161;28;20605;-70
2023/04/14 06:00:45;;;;;;;13.00;5.60;;;;;;;4.68;100.00;99919.69;5003672;28;20217;-70
2023/04/14 06:03:11;;;;;;;11.27;5.40;;;;;;;4.35;100.00;99909.06;5006134;28;20241;-70
2023/04/14 06:05:38;;;;;;;12.40;5.60;;;;;;;4.16;100.00;99906.75;5005580;28;20230;-70
2023/04/14 06:08:05;;;;;;;17.10;5.80;;;;;;;3.93;100.00;99913.88;5003168;28;20213;-70
2023/04/14 06:10:31;;;;;;;10.73;4.87;;;;;;;3.97;100.00;99899.13;5005638;28;20208;-71
2023/04/14 06:12:57;;;;;;;8.60;4.53;;;;;;;4.24;100.00;99904.34;5001290;28;20232;-70
2023/04/14 06:15:27;;;;;;;11.20;4.60;;;;;;;4.27;100.00;99902.72;5003157;28;20295;-70
2023/04/14 06:17:53;;;;;;;10.27;4.60;;;;;;;4.28;100.00;99906.22;5004620;28;20210;-70
2023/04/14 06:20:20;;;;;;;10.73;5.10;;;;;;;4.25;100.00;99907.03;4987007;28;20199;-70
2023/04/14 06:22:47;;;;;;;9.60;4.40;;;;;;;4.28;100.00;99903.59;5000798;28;20202;-69
2023/04/14 06:25:13;;;;;;;12.47;4.53;;;;;;;4.24;100.00;99901.72;4983095;28;20229;-69
2023/04/14 06:27:39;;;;;;;8.90;4.40;;;;;;;4.22;100.00;99900.78;5007563;28;20289;-69
2023/04/14 06:30:07;;;;;;;12.23;4.40;;;;;;;4.36;100.00;99899.47;4999450;28;20196;-70
2023/04/14 06:32:33;;;;;;;8.93;4.17;;;;;;;4.73;100.00;99896.19;5008016;28;20217;-69
2023/04/14 06:35:00;;;;;;;11.30;4.70;;;;;;;5.09;100.00;99888.47;5006232;28;20230;-69
2023/04/14 06:37:26;;;;;;;7.63;4.00;;;;;;;5.54;100.00;99888.78;5002165;28;20202;-69
2023/04/14 06:39:53;;;;;;;13.87;5.37;;;;;;;5.91;100.00;99887.97;4996835;28;20207;-70
2023/04/14 06:42:19;;;;;;;10.50;5.40;;;;;;;6.09;100.00;99886.66;5007422;28;20585;-70
2023/04/14 06:44:45;;;;;;;9.23;4.30;;;;;;;6.11;100.00;99882.31;4998336;28;20236;-69
2023/04/14 06:47:17;;;;;;;9.43;3.80;;;;;;;6.08;100.00;99895.41;5006649;28;20218;-71
2023/04/14 06:49:43;;;;;;;7.93;3.73;;;;;;;5.91;100.00;99890.59;4996792;28;20636;-70
2023/04/14 06:52:09;;;;;;;5.50;3.60;;;;;;;6.35;100.00;99890.75;4997371;28;20195;-69
2023/04/14 06:54:35;;;;;;;10.60;3.70;;;;;;;6.79;100.00;99888.16;5013263;28;20308;-70
2023/04/14 06:57:02;;;;;;;6.10;3.13;;;;;;;6.42;100.00;99890.03;5000781;28;20200;-70
2023/04/14 06:59:28;;;;;;;13.23;3.57;;;;;;;6.33;100.00;99891.56;5011244;28;20220;-70
2023/04/14 07:01:55;;;;;;;5.17;3.23;;;;;;;6.96;100.00;99888.53;5004567;28;20204;-70
2023/04/14 07:04:21;;;;;;;12.03;3.50;;;;;;;7.74;96.88;99877.66;4998730;28;20473;-70
2023/04/14 07:06:48;;;;;;;11.00;3.37;;;;;;;9.55;92.39;99879.13;5004915;28;20207;-71
2023/04/14 07:09:14;;;;;;;8.27;3.20;;;;;;;10.68;83.06;99875.53;5008849;28;20223;-71
2023/04/14 07:11:41;;;;;;;8.20;3.10;;;;;;;10.96;79.00;99876.56;4993704;28;20200;-71
2023/04/14 07:14:07;;;;;;;6.67;2.67;;;;;;;11.55;77.92;99881.09;5001825;28;20230;-71
2023/04/14 07:16:33;;;;;;;5.40;2.73;;;;;;;12.35;71.14;99884.66;5001167;28;20844;-71
2023/04/14 07:19:00;;;;;;;8.57;2.50;;;;;;;11.20;74.11;99879.25;4994521;28;20206;-71
2023/04/14 07:21:26;;;;;;;5.63;2.70;;;;;;;11.58;73.59;99881.09;4997594;28;20204;-71
2023/04/14 07:23:52;;;;;;;5.80;2.47;;;;;;;12.66;71.78;99885.47;4999664;28;20668;-70
2023/04/14 07:26:19;;;;;;;4.30;2.50;;;;;;;13.46;69.98;99879.78;5009000;28;20225;-71
2023/04/14 07:28:46;;;;;;;7.77;2.33;;;;;;;14.03;65.38;99885.56;5011223;28;20223;-71
2023/04/14 07:31:12;;;;;;;4.57;2.30;;;;;;;14.03;63.58;99877.59;5010403;28;20213;-71
2023/04/14 07:33:39;;;;;;;9.23;2.80;;;;;;;13.54;63.02;99879.72;5012646;28;20202;-72
2023/04/14 07:36:06;;;;;;;7.70;2.43;;;;;;;13.07;62.89;99875.53;5010997;28;20277;-71
2023/04/14 07:38:33;;;;;;;6.67;2.50;;;;;;;12.45;66.94;99878.44;5007193;28;20669;-70
2023/04/14 07:41:03;;;;;;;9.47;2.70;;;;;;;12.32;66.51;99884.66;4994544;28;20236;-71
2023/04/14 07:43:36;;;;;;;5.30;2.30;;;;;;;12.29;66.61;99887.31;4992567;28;20302;-70
2023/04/14 07:46:03;;;;;;;7.03;2.23;;;;;;;11.81;67.48;99891.78;5005226;28;20231;-70
2023/04/14 07:48:31;;;;;;;5.40;2.40;;;;;;;11.05;70.26;99889.81;5008007;28;20220;-70
2023/04/14 07:50:57;;;;;;;5.87;2.63;;;;;;;10.92;73.44;99886.25;4999146;28;20200;-70
2023/04/14 07:53:24;;;;;;;9.43;2.40;;;;;;;10.65;74.06;99880.84;5007962;28;20196;-70
2023/04/14 07:55:50;;;;;;;5.63;2.47;;;;;;;10.50;74.83;99878.13;4999342;28;20298;-70
2023/04/14 07:58:17;;;;;;;6.00;2.67;;;;;;;10.43;74.75;99887.78;4994791;28;20197;-70
2023/04/14 08:00:43;;;;;;;6.30;2.50;;;;;;;10.46;76.02;99881.63;4998261;28;20201;-70
2023/04/14 08:03:10;;;;;;;6.20;2.90;;;;;;;10.62;76.24;99879.06;5008443;28;20204;-71
2023/04/14 08:05:36;;;;;;;7.07;2.90;;;;;;;10.60;75.58;99879.94;4999645;28;20657;-70
2023/04/14 08:08:03;;;;;;;8.97;3.30;;;;;;;10.56;75.13;99884.31;5005895;28;20197;-70
2023/04/14 08:10:30;;;;;;;8.67;3.63;;;;;;;10.60;76.25;99879.94;4993149;28;20224;-70
2023/04/14 08:12:56;;;;;;;6.07;3.27;;;;;;;10.64;76.49;99874.66;5001635;28;20286;-71
2023/04/14 08:15:22;;;;;;;14.17;3.97;;;;;;;10.71;74.71;99872.91;5008867;28;20221;-70
2023/04/14 08:17:49;;;;;;;8.97;3.67;;;;;;;10.73;75.60;99875.56;5003735;28;20197;-70
2023/04/14 08:20:16;;;;;;;5.40;3.40;;;;;;;10.75;76.14;99876.44;5007678;28;20197;-72
2023/04/14 08:22:42;;;;;;;7.80;4.00;;;;;;;10.79;76.87;99870.28;5006324;28;20242;-70
2023/04/14 08:25:11;;;;;;;6.73;4.17;;;;;;;10.96;76.10;99872.13;5008033;28;20267;-70
2023/04/14 08:27:37;;;;;;;10.23;4.43;;;;;;;11.04;76.29;99865.97;5006839;28;20196;-71
2023/04/14 08:30:04;;;;;;;8.50;4.77;;;;;;;10.82;75.41;99859.75;4996166;28;20214;-70
2023/04/14 08:32:31;;;;;;;14.17;7.27;;;;;;;11.03;75.85;99862.44;5006156;28;20555;-70
2023/04/14 08:34:58;;;;;;;7.90;4.43;;;;;;;11.19;74.92;99868.66;4992866;28;20670;-71
2023/04/14 08:37:44;;;;;;;10.17;4.50;;;;;;;11.09;72.93;99857.16;5008648;28;20200;-71
2023/04/14 08:40:12;;;;;;;7.80;4.17;;;;;;;11.31;73.67;99855.44;5002662;28;20257;-70
2023/04/14 08:42:38;;;;;;;8.83;4.27;;;;;;;11.52;74.45;99855.47;4998936;28;20200;-71
2023/04/14 08:45:05;;;;;;;8.33;3.87;;;;;;;11.69;72.82;99860.78;5009550;28;20223;-71
2023/04/14 08:47:34;;;;;;;9.20;4.60;;;;;;;11.85;72.56;99859.06;5000388;28;20228;-70
2023/04/14 08:50:09;;;;;;;9.80;4.60;;;;;;;12.01;71.71;99866.13;5008944;28;20253;-71
2023/04/14 08:52:39;;;;;;;8.00;4.00;;;;;;;11.95;70.21;99855.50;4994483;28;20672;-70
2023/04/14 08:55:06;;;;;;;6.23;4.20;;;;;;;11.84;70.44;99849.31;5010246;28;20700;-70
2023/04/14 08:57:33;;;;;;;9.43;4.90;;;;;;;11.40;71.53;99854.56;4996471;28;20807;-70
2023/04/14 09:00:03;;;;;;;12.23;4.83;;;;;;;11.53;73.53;99857.22;5010447;28;20706;-73
2023/04/14 09:02:33;;;;;;;13.80;4.87;;;;;;;11.79;72.81;99859.06;5005475;28;20283;-75
2023/04/14 09:05:00;;;;;;;10.67;4.33;;;;;;;12.04;73.03;99855.50;5007786;28;20439;-75
2023/04/14 09:07:26;;;;;;;12.13;4.70;;;;;;;12.18;71.71;99851.06;5003606;28;20670;-75
2023/04/14 09:09:56;;;;;;;10.37;5.53;;;;;;;12.20;71.21;99849.28;5010863;28;20222;-75
2023/04/14 09:12:26;;;;;;;10.40;5.43;;;;;;;12.39;71.79;99850.09;5008171;28;20711;-76
2023/04/14 09:14:53;;;;;;;9.77;5.43;;;;;;;12.59;71.90;99850.06;5010048;28;20225;-75
2023/04/14 09:17:20;;;;;;;11.37;5.17;;;;;;;12.93;69.66;99844.63;4996582;28;20211;-75
2023/04/14 09:19:47;;;;;;;10.63;5.53;;;;;;;12.89;68.17;99840.22;4999144;28;20256;-75
2023/04/14 09:22:34;;;;;;;9.97;5.30;;;;;;;12.95;68.48;99834.84;4995153;28;20217;-75
2023/04/14 09:25:01;;;;;;;8.70;5.47;;;;;;;13.08;69.40;99828.56;4996099;28;20224;-76
2023/04/14 09:27:28;;;;;;;7.40;5.10;;;;;;;13.28;68.91;99832.03;5006121;28;20239;-72
2023/04/14 09:29:57;;;;;;;8.83;5.07;;;;;;;13.38;66.60;99825.75;5006385;28;20266;-71
2023/04/14 09:32:24;;;;;;;10.30;5.13;;;;;;;13.55;65.71;99822.97;5006936;28;20204;-72
2023/04/14 09:34:53;;;;;;;10.53;5.60;;;;;;;13.65;65.31;99818.47;4988626;28;20593;-76
2023/04/14 09:37:23;;;;;;;9.03;4.53;;;;;;;13.68;62.85;99821.09;5007497;28;20615;-78
2023/04/14 09:39:51;;;;;;;8.67;5.47;;;;;;;13.64;65.12;99824.69;4990028;28;20265;-76
2023/04/14 09:42:18;;;;;;;11.10;5.03;;;;;;;13.74;64.24;99827.25;5002588;28;20204;-76
2023/04/14 09:44:57;;;;;;;8.77;5.20;;;;;;;13.80;64.13;99821.00;5004760;28;20218;-76
2023/04/14 09:47:24;;;;;;;10.27;5.50;;;;;;;13.93;64.37;99824.41;5005610;28;20200;-77
2023/04/14 09:50:02;;;;;;;9.47;4.33;;;;;;;14.04;63.51;99815.44;5009338;28;20220;-79
2023/04/14 09:52:43;;;;;;;10.17;4.97;;;;;;;14.31;63.58;99819.59;5004364;28;20207;-77
2023/04/14 09:55:15;;;;;;;10.30;5.13;;;;;;;14.33;63.15;99815.13;5004506;28;20763;-78
2023/04/14 09:57:50;;;;;;;9.03;5.17;;;;;;;14.38;62.82;99812.41;5001522;28;20200;-77
2023/04/14 10:00:20;;;;;;;8.80;5.20;;;;;;;14.39;62.58;99817.72;5008378;28;20191;-79
2023/04/14 10:02:54;;;;;;;8.83;4.87;;;;;;;14.53;61.00;99808.75;5006397;28;20200;-79
2023/04/14 10:05:27;;;;;;;9.13;4.63;;;;;;;14.58;61.34;99806.91;5003983;28;20246;-75
2023/04/14 10:07:54;;;;;;;7.83;4.17;;;;;;;14.70;61.19;99804.06;5002162;28;20203;-73
2023/04/14 10:10:22;;;;;;;10.30;4.43;;;;;;;14.79;60.32;99797.72;5006485;28;20255;-73
2023/04/14 10:12:51;;;;;;;9.53;4.20;;;;;;;14.86;57.92;99791.44;5005617;28;20575;-72
2023/04/14 10:15:18;;;;;;;9.43;4.10;;;;;;;14.78;57.12;99791.50;4992361;28;20216;-72
2023/04/14 10:17:44;;;;;;;7.70;3.40;;;;;;;14.92;56.87;99788.69;5006693;28;20340;-75
2023/04/14 10:20:11;;;;;;;7.40;3.37;;;;;;;15.04;56.80;99780.50;5003748;28;20192;-73
2023/04/14 10:22:39;;;;;;;10.37;3.50;;;;;;;15.23;55.88;99784.69;5003772;28;20247;-73
2023/04/14 10:25:08;;;;;;;25.93;5.73;;;;;;;15.29;54.70;99783.69;5009524;28;20269;-73
2023/04/14 10:27:35;;;;;;;8.23;3.53;;;;;;;15.23;52.88;99786.47;4992527;28;20266;-72
2023/04/14 10:30:04;;;;;;;10.10;3.20;;;;;;;15.00;52.65;99781.44;5011826;28;20218;-71
2023/04/14 10:32:34;;;;;;;4.83;2.90;;;;;;;15.09;50.91;99789.31;5009160;28;20216;-71
2023/04/14 10:35:11;;;;;;;6.43;3.60;;;;;;;15.23;49.95;99776.69;5010142;28;20223;-71
2023/04/14 10:37:37;;;;;;;7.13;2.63;;;;;;;15.36;48.02;99777.34;5003126;28;20668;-71
2023/04/14 10:40:05;;;;;;;7.20;3.03;;;;;;;15.41;49.20;99771.94;5004800;28;20196;-72
2023/04/14 10:42:55;;;;;;;6.57;3.00;;;;;;;15.47;47.14;99777.16;5011298;28;20196;-72
2023/04/14 10:45:22;;;;;;;4.53;2.67;;;;;;;15.38;46.93;99786.22;5009021;28;20251;-71
2023/04/14 10:47:49;;;;;;;7.67;2.67;;;;;;;15.45;48.44;99771.88;4992244;28;20224;-73
2023/04/14 10:50:17;;;;;;;6.23;2.80;;;;;;;15.60;46.80;99766.28;5003535;28;20307;-73
2023/04/14 10:52:57;;;;;;;5.77;2.90;;;;;;;15.66;48.40;99765.34;4987394;28;20196;-73
2023/04/14 10:55:25;;;;;;;6.30;2.33;;;;;;;15.74;48.42;99759.84;5012161;28;20356;-72
2023/04/14 10:58:03;;;;;;;6.00;2.87;;;;;;;15.59;47.44;99760.97;5002553;28;20283;-72
2023/04/14 11:00:31;;;;;;;7.73;3.17;;;;;;;15.75;46.99;99758.94;5009142;28;20196;-71
2023/04/14 11:03:09;;;;;;;7.03;2.80;;;;;;;15.84;46.74;99756.09;5008848;28;20200;-72
2023/04/14 11:05:42;;;;;;;6.63;3.20;;;;;;;15.84;45.63;99759.66;5007370;28;20224;-70
2023/04/14 11:08:16;;;;;;;4.03;2.43;;;;;;;16.02;46.41;99750.44;5009071;28;20681;-71
2023/04/14 11:10:52;;;;;;;4.97;2.60;;;;;;;15.96;47.10;99751.41;5007918;28;20219;-70
2023/04/14 11:13:19;;;;;;;6.40;3.00;;;;;;;16.01;47.31;99743.34;5009359;28;20231;-70
2023/04/14 11:15:50;;;;;;;7.40;2.70;;;;;;;15.88;46.42;99745.34;5006745;28;20216;-70
2023/04/14 11:18:32;;;;;;;6.30;3.00;;;;;;;15.85;47.81;99741.84;5009747;28;20200;-71
2023/04/14 11:21:03;;;;;;;7.17;2.60;;;;;;;16.02;46.36;99733.53;5007683;28;20200;-70
2023/04/14 11:23:30;;;;;;;7.67;2.23;;;;;;;15.98;45.27;99732.69;5003087;28;20208;-72
2023/04/14 11:25:57;;;;;;;8.03;2.30;;;;;;;15.78;43.74;99727.72;5008412;28;20216;-70
2023/04/14 11:28:33;;;;;;;6.87;2.63;;;;;;;15.87;46.79;99730.22;5003616;28;20295;-69
2023/04/14 11:31:04;;;;;;;6.83;2.50;;;;;;;16.06;45.93;99721.88;5005745;28;20232;-73
2023/04/14 11:33:36;;;;;;;6.03;2.30;;;;;;;15.62;45.78;99720.91;4988194;28;20197;-71
2023/04/14 11:36:04;;;;;;;7.03;2.47;;;;;;;15.33;44.68;99726.72;5008918;28;20216;-72
2023/04/14 11:38:34;;;;;;;11.40;3.27;;;;;;;14.99;46.80;99724.56;5003079;28;20197;-74
2023/04/14 11:41:01;;;;;;;9.20;3.33;;;;;;;14.69;48.11;99720.56;5007771;28;20197;-72